Time;durP1;ratioP1;P1;durP2;ratioP2;P2;SDS_P1;SDS_P2;PMS_P1;PMS_P2;Temp;Humidity;BMP_temperature;BMP_pressure;BME280_temperature;BME280_humidity;BME280_pressure;Samples;Min_cycle;Max_cycle;Signal;HPM_P1;HPM_P2
2022/07/01 00:00:26;;;;;;;;;;;25.70;60.40;;;;;;5042429;28;88068;-45
2022/07/01 00:02:51;;;;;;;;;;;25.70;60.30;;;;;;5043077;28;86336;-44
2022/07/01 00:05:17;;;;;;;;;;;25.70;60.40;;;;;;5042904;28;87074;-44
2022/07/01 00:07:42;;;;;;;;;;;25.70;60.40;;;;;;5042028;28;89313;-44
2022/07/01 00:10:08;;;;;;;;;;;25.70;60.40;;;;;;5041895;28;88166;-44
2022/07/01 00:12:34;;;;;;;;;;;25.70;60.40;;;;;;5045023;28;89800;-44
2022/07/01 00:14:59;;;;;;;;;;;25.70;60.30;;;;;;5041997;28;87158;-43
2022/07/01 00:17:24;;;;;;;;;;;25.70;60.40;;;;;;5042448;28;87467;-44
2022/07/01 00:19:50;;;;;;;;;;;25.60;60.30;;;;;;5042467;28;88266;-44
2022/07/01 00:22:16;;;;;;;;;;;25.60;60.30;;;;;;5042577;28;87092;-44
2022/07/01 00:24:41;;;;;;;;;;;25.60;60.40;;;;;;5042389;27;87949;-44
2022/07/01 00:27:07;;;;;;;;;;;25.60;60.40;;;;;;5042438;28;88225;-45
2022/07/01 00:29:33;;;;;;;;;;;25.50;60.30;;;;;;5042372;28;87112;-43
2022/07/01 00:31:59;;;;;;;;;;;25.50;60.30;;;;;;5042018;27;88886;-45
2022/07/01 00:34:25;;;;;;;;;;;25.50;61.00;;;;;;5044362;28;88991;-44
2022/07/01 00:36:50;;;;;;;;;;;25.50;60.30;;;;;;5042362;27;87329;-44
2022/07/01 00:39:16;;;;;;;;;;;25.50;60.30;;;;;;5041860;28;87950;-44
2022/07/01 00:41:41;;;;;;;;;;;25.50;60.30;;;;;;5042603;28;87432;-44
2022/07/01 00:44:15;;;;;;;;;;;25.40;60.30;;;;;;5041863;27;87697;-44
2022/07/01 00:46:41;;;;;;;;;;;25.40;60.30;;;;;;5041871;28;88205;-43
2022/07/01 00:49:06;;;;;;;;;;;25.40;60.20;;;;;;5042138;28;87171;-44
2022/07/01 00:51:32;;;;;;;;;;;25.40;60.30;;;;;;5042787;27;87499;-44
2022/07/01 00:53:58;;;;;;;;;;;25.40;60.30;;;;;;5041747;28;87992;-44
2022/07/01 00:56:24;;;;;;;;;;;25.40;60.30;;;;;;5044659;28;87140;-45
2022/07/01 00:58:49;;;;;;;;;;;25.40;60.20;;;;;;5041042;28;89173;-44
2022/07/01 01:01:15;;;;;;;;;;;25.40;60.20;;;;;;5044196;27;87295;-43
2022/07/01 01:03:40;;;;;;;;;;;25.30;60.20;;;;;;5045546;27;88736;-44
2022/07/01 01:06:06;;;;;;;;;;;25.30;60.20;;;;;;5045087;28;88160;-43
2022/07/01 01:08:32;;;;;;;;;;;25.30;60.20;;;;;;5045605;28;87281;-44
2022/07/01 01:10:57;;;;;;;;;;;25.30;60.20;;;;;;5045161;28;87654;-44
2022/07/01 01:13:23;;;;;;;;;;;25.30;60.20;;;;;;5045001;28;88367;-44
2022/07/01 01:15:48;;;;;;;;;;;25.30;60.10;;;;;;5045794;28;86423;-44
2022/07/01 01:18:14;;;;;;;;;;;25.30;60.10;;;;;;5048023;27;87110;-42
2022/07/01 01:20:39;;;;;;;;;;;25.30;60.10;;;;;;5045390;28;87047;-44
2022/07/01 01:23:05;;;;;;;;;;;25.20;60.10;;;;;;5044654;28;87935;-44
2022/07/01 01:25:33;;;;;;;;;;;25.20;60.00;;;;;;5044607;28;89272;-42
2022/07/01 01:27:59;;;;;;;;;;;25.20;60.00;;;;;;5045086;28;87142;-45
2022/07/01 01:30:25;;;;;;;;;;;25.20;60.00;;;;;;5043167;28;90617;-45
2022/07/01 01:32:50;;;;;;;;;;;25.20;60.00;;;;;;5044730;28;87835;-44
2022/07/01 01:35:16;;;;;;;;;;;25.20;60.10;;;;;;5044903;28;87092;-44
2022/07/01 01:37:42;;;;;;;;;;;25.20;60.10;;;;;;5045113;27;87338;-45
2022/07/01 01:40:08;;;;;;;;;;;25.10;60.10;;;;;;5047825;28;87678;-44
2022/07/01 01:42:34;;;;;;;;;;;25.10;60.00;;;;;;5044889;27;88229;-44
2022/07/01 01:44:59;;;;;;;;;;;25.20;60.00;;;;;;5044146;28;88101;-44
2022/07/01 01:47:25;;;;;;;;;;;25.10;60.00;;;;;;5044058;28;87967;-43
2022/07/01 01:49:50;;;;;;;;;;;25.10;60.10;;;;;;5044692;28;87650;-44
2022/07/01 01:52:16;;;;;;;;;;;25.10;59.90;;;;;;5044658;28;89736;-44
2022/07/01 01:54:41;;;;;;;;;;;25.10;60.00;;;;;;5044934;28;87026;-44
2022/07/01 01:57:07;;;;;;;;;;;25.10;60.00;;;;;;5044797;28;87674;-44
2022/07/01 01:59:33;;;;;;;;;;;25.10;60.00;;;;;;5044276;28;87595;-43
2022/07/01 02:01:58;;;;;;;;;;;25.00;60.00;;;;;;5047575;28;86987;-46
2022/07/01 02:04:24;;;;;;;;;;;25.00;60.00;;;;;;5044797;28;86735;-45
2022/07/01 02:06:50;;;;;;;;;;;25.00;60.00;;;;;;5044194;28;87076;-44
2022/07/01 02:09:16;;;;;;;;;;;25.00;60.00;;;;;;5044351;27;87380;-44
2022/07/01 02:11:41;;;;;;;;;;;25.00;60.00;;;;;;5042960;27;88170;-46
2022/07/01 02:14:07;;;;;;;;;;;25.00;60.00;;;;;;5044351;28;87175;-44
2022/07/01 02:16:32;;;;;;;;;;;24.90;60.00;;;;;;5044205;28;87512;-44
2022/07/01 02:18:58;;;;;;;;;;;24.90;60.10;;;;;;5043914;28;87935;-44
2022/07/01 02:21:23;;;;;;;;;;;24.80;60.10;;;;;;5047330;28;87167;-44
2022/07/01 02:23:51;;;;;;;;;;;24.80;60.10;;;;;;5043902;28;88138;-45
2022/07/01 02:26:16;;;;;;;;;;;24.80;60.00;;;;;;5044242;28;87164;-44
2022/07/01 02:28:42;;;;;;;;;;;24.80;60.00;;;;;;5044556;27;87399;-46
2022/07/01 02:31:07;;;;;;;;;;;24.80;60.10;;;;;;5043619;28;88073;-44
2022/07/01 02:33:33;;;;;;;;;;;24.80;60.10;;;;;;5044184;28;87274;-43
2022/07/01 02:35:59;;;;;;;;;;;24.80;60.10;;;;;;5043676;27;88223;-44
2022/07/01 02:38:24;;;;;;;;;;;24.80;60.10;;;;;;5043692;28;88171;-45
2022/07/01 02:40:50;;;;;;;;;;;24.80;60.10;;;;;;5043868;28;87123;-44
2022/07/01 02:43:16;;;;;;;;;;;24.80;60.10;;;;;;5046674;28;87457;-44
2022/07/01 02:45:41;;;;;;;;;;;24.70;60.10;;;;;;5043140;28;87162;-46
2022/07/01 02:48:07;;;;;;;;;;;24.70;60.10;;;;;;5043540;27;89072;-44
2022/07/01 02:50:32;;;;;;;;;;;24.70;60.10;;;;;;5043325;28;89468;-44
2022/07/01 02:52:58;;;;;;;;;;;24.70;60.10;;;;;;5044255;28;86309;-45
2022/07/01 02:55:23;;;;;;;;;;;24.60;60.10;;;;;;5043789;28;87091;-44
2022/07/01 02:57:51;;;;;;;;;;;24.60;60.10;;;;;;5043525;28;88065;-44
2022/07/01 03:00:17;;;;;;;;;;;24.60;60.00;;;;;;5042832;28;88064;-44
2022/07/01 03:02:42;;;;;;;;;;;24.60;60.00;;;;;;5043674;27;88225;-43
2022/07/01 03:05:08;;;;;;;;;;;24.60;60.10;;;;;;5046172;28;88022;-44
2022/07/01 03:07:37;;;;;;;;;;;24.60;60.10;;;;;;5043513;27;87144;-44
2022/07/01 03:10:03;;;;;;;;;;;24.60;60.10;;;;;;5042830;28;87983;-44
2022/07/01 03:12:29;;;;;;;;;;;24.50;60.10;;;;;;5043207;28;87059;-44
2022/07/01 03:14:58;;;;;;;;;;;24.50;60.10;;;;;;5042930;27;88838;-44
2022/07/01 03:17:24;;;;;;;;;;;24.50;60.10;;;;;;5043691;28;87358;-43
2022/07/01 03:19:51;;;;;;;;;;;24.50;60.20;;;;;;5043416;28;87116;-43
2022/07/01 03:22:17;;;;;;;;;;;24.50;60.20;;;;;;5043697;27;87412;-44
2022/07/01 03:24:42;;;;;;;;;;;24.50;60.20;;;;;;5041155;27;88978;-44
2022/07/01 03:27:08;;;;;;;;;;;24.40;60.10;;;;;;5046190;28;87192;-45
2022/07/01 03:29:34;;;;;;;;;;;24.40;60.10;;;;;;5042132;28;89336;-45
2022/07/01 03:31:59;;;;;;;;;;;24.40;60.20;;;;;;5043026;28;87055;-44
2022/07/01 03:34:25;;;;;;;;;;;24.30;60.20;;;;;;5043147;28;87096;-45
2022/07/01 03:36:51;;;;;;;;;;;24.30;60.20;;;;;;5042947;28;87990;-44
2022/07/01 03:39:16;;;;;;;;;;;24.30;60.30;;;;;;5043254;28;87108;-45
2022/07/01 03:41:42;;;;;;;;;;;24.30;60.20;;;;;;5043679;28;87401;-44
2022/07/01 03:44:07;;;;;;;;;;;24.30;60.10;;;;;;5041939;28;87180;-44
2022/07/01 03:46:34;;;;;;;;;;;24.30;60.10;;;;;;5042944;28;86973;-44
2022/07/01 03:48:59;;;;;;;;;;;24.30;60.20;;;;;;5044585;27;88160;-44
2022/07/01 03:51:25;;;;;;;;;;;24.30;60.20;;;;;;5042818;28;87144;-45
2022/07/01 03:56:34;;;;;;;;;;;24.20;60.20;;;;;;5042716;28;87006;-44
2022/07/01 03:59:00;;;;;;;;;;;24.20;60.10;;;;;;5042832;28;87083;-43
2022/07/01 04:01:25;;;;;;;;;;;24.20;60.20;;;;;;5042838;28;87445;-44
2022/07/01 04:03:51;;;;;;;;;;;24.20;60.30;;;;;;5042553;28;88310;-44
2022/07/01 04:06:16;;;;;;;;;;;24.20;60.20;;;;;;5043143;28;86432;-44
2022/07/01 04:08:42;;;;;;;;;;;24.20;60.20;;;;;;5042697;27;86998;-45
2022/07/01 04:11:08;;;;;;;;;;;24.20;60.20;;;;;;5044963;28;88153;-44
2022/07/01 04:13:36;;;;;;;;;;;24.10;60.10;;;;;;5041638;27;88082;-42
2022/07/01 04:16:02;;;;;;;;;;;24.10;60.20;;;;;;5042015;28;89437;-44
2022/07/01 04:18:28;;;;;;;;;;;24.10;60.20;;;;;;5042660;28;87000;-44
2022/07/01 04:23:38;;;;;;;;;;;24.10;60.40;;;;;;5041577;28;86922;-44
2022/07/01 04:26:04;;;;;;;;;;;24.00;60.30;;;;;;5042333;28;86953;-44
2022/07/01 04:28:29;;;;;;;;;;;24.00;60.30;;;;;;5042447;27;87334;-45
2022/07/01 04:30:55;;;;;;;;;;;24.00;60.40;;;;;;5045660;28;86696;-44
2022/07/01 04:33:21;;;;;;;;;;;24.00;60.50;;;;;;5042379;27;87891;-44
2022/07/01 04:35:46;;;;;;;;;;;24.00;60.40;;;;;;5043836;28;87970;-44
2022/07/01 04:38:12;;;;;;;;;;;23.90;60.40;;;;;;5045310;28;88030;-44
2022/07/01 04:40:37;;;;;;;;;;;23.90;60.50;;;;;;5045784;28;88938;-46
2022/07/01 04:43:03;;;;;;;;;;;24.00;60.50;;;;;;5045441;28;88104;-43
2022/07/01 04:45:28;;;;;;;;;;;23.90;60.50;;;;;;5045263;28;87132;-45
2022/07/01 04:47:54;;;;;;;;;;;23.90;60.50;;;;;;5045932;28;87373;-44
2022/07/01 04:50:19;;;;;;;;;;;23.90;60.50;;;;;;5045418;28;88320;-44
2022/07/01 04:52:45;;;;;;;;;;;23.90;60.60;;;;;;5048740;28;87040;-44
2022/07/01 04:55:10;;;;;;;;;;;23.90;61.20;;;;;;5045608;28;87077;-44
2022/07/01 04:57:36;;;;;;;;;;;23.90;60.60;;;;;;5045462;28;87124;-44
2022/07/01 05:00:02;;;;;;;;;;;23.90;60.50;;;;;;5045732;28;87418;-45
2022/07/01 05:02:28;;;;;;;;;;;23.90;60.50;;;;;;5044783;28;88097;-44
2022/07/01 05:04:54;;;;;;;;;;;23.90;60.50;;;;;;5045645;28;87110;-44
2022/07/01 05:07:28;;;;;;;;;;;23.90;60.60;;;;;;5045256;27;88809;-44
2022/07/01 05:09:58;;;;;;;;;;;23.90;60.60;;;;;;5044874;28;87842;-44
2022/07/01 05:12:24;;;;;;;;;;;23.90;60.70;;;;;;5045237;28;87092;-44
2022/07/01 05:14:50;;;;;;;;;;;23.80;60.70;;;;;;5047909;28;87290;-42
2022/07/01 05:17:15;;;;;;;;;;;23.80;60.80;;;;;;5045323;28;87132;-44
2022/07/01 05:22:25;;;;;;;;;;;23.80;61.00;;;;;;5044906;28;87478;-44
2022/07/01 05:24:50;;;;;;;;;;;23.80;61.00;;;;;;5045342;28;87123;-44
2022/07/01 05:27:16;;;;;;;;;;;23.80;61.00;;;;;;5044604;28;87910;-43
2022/07/01 05:29:41;;;;;;;;;;;23.90;61.00;;;;;;5044663;28;88271;-43
2022/07/01 05:32:07;;;;;;;;;;;23.90;61.00;;;;;;5045137;28;87118;-44
2022/07/01 05:34:32;;;;;;;;;;;23.90;61.10;;;;;;5045066;27;87389;-44
2022/07/01 05:36:58;;;;;;;;;;;23.90;61.10;;;;;;5047664;28;88070;-43
2022/07/01 05:39:24;;;;;;;;;;;23.90;61.20;;;;;;5045045;27;87118;-45
2022/07/01 05:41:50;;;;;;;;;;;23.90;61.20;;;;;;5044442;28;89574;-44
2022/07/01 05:44:16;;;;;;;;;;;23.90;61.20;;;;;;5044898;28;86235;-44
2022/07/01 05:46:41;;;;;;;;;;;23.90;61.20;;;;;;5043881;27;88463;-44
2022/07/01 05:49:07;;;;;;;;;;;23.90;61.10;;;;;;5044337;28;87898;-43
2022/07/01 05:51:33;;;;;;;;;;;23.90;61.10;;;;;;5044177;28;88036;-44
2022/07/01 05:53:58;;;;;;;;;;;23.90;61.10;;;;;;5044712;27;88366;-44
2022/07/01 05:56:24;;;;;;;;;;;23.90;61.10;;;;;;5044338;28;86994;-43
2022/07/01 05:58:49;;;;;;;;;;;24.00;61.10;;;;;;5047343;28;87339;-44
2022/07/01 06:01:15;;;;;;;;;;;24.00;61.10;;;;;;5044348;28;87966;-44
2022/07/01 06:03:40;;;;;;;;;;;24.00;61.10;;;;;;5044271;28;87059;-44
2022/07/01 06:06:06;;;;;;;;;;;24.00;61.20;;;;;;5044310;28;87835;-44
2022/07/01 06:08:33;;;;;;;;;;;24.00;61.10;;;;;;5044544;28;86472;-44
2022/07/01 06:10:58;;;;;;;;;;;24.00;61.10;;;;;;5044017;28;87135;-43
2022/07/01 06:13:24;;;;;;;;;;;24.00;61.30;;;;;;5044691;28;87050;-44
2022/07/01 06:15:49;;;;;;;;;;;24.00;61.30;;;;;;5043205;27;90598;-44
2022/07/01 06:18:15;;;;;;;;;;;23.90;61.20;;;;;;5044315;28;87140;-43
2022/07/01 06:20:40;;;;;;;;;;;23.90;61.30;;;;;;5047077;27;87448;-43
2022/07/01 06:23:06;;;;;;;;;;;24.00;61.30;;;;;;5044313;28;87279;-45
2022/07/01 06:25:31;;;;;;;;;;;24.00;61.30;;;;;;5044495;28;87316;-42
2022/07/01 06:27:57;;;;;;;;;;;24.00;61.40;;;;;;5044000;28;88173;-44
2022/07/01 06:30:22;;;;;;;;;;;24.00;61.60;;;;;;5044320;28;87229;-43
2022/07/01 06:32:48;;;;;;;;;;;24.00;61.60;;;;;;5044760;28;87620;-44
2022/07/01 06:35:13;;;;;;;;;;;24.00;61.60;;;;;;5043714;28;88098;-46
2022/07/01 06:37:39;;;;;;;;;;;24.00;61.60;;;;;;5044098;28;88147;-44
2022/07/01 06:40:05;;;;;;;;;;;24.00;61.60;;;;;;5044444;28;89127;-43
2022/07/01 06:42:31;;;;;;;;;;;23.90;61.60;;;;;;5043991;28;87127;-43
2022/07/01 06:44:56;;;;;;;;;;;24.00;61.70;;;;;;5043701;27;87498;-44
2022/07/01 06:47:22;;;;;;;;;;;24.00;61.70;;;;;;5043612;28;87651;-44
2022/07/01 06:49:48;;;;;;;;;;;24.00;61.70;;;;;;5043766;27;87136;-44
2022/07/01 06:52:13;;;;;;;;;;;24.00;61.70;;;;;;5043389;27;88768;-46
2022/07/01 06:54:39;;;;;;;;;;;24.00;61.90;;;;;;5043529;28;88062;-44
2022/07/01 06:57:05;;;;;;;;;;;23.90;61.80;;;;;;5044445;28;86279;-43
2022/07/01 06:59:31;;;;;;;;;;;24.00;61.80;;;;;;5043795;27;86862;-44
2022/07/01 07:01:56;;;;;;;;;;;24.00;61.90;;;;;;5046361;28;88010;-43
2022/07/01 07:04:22;;;;;;;;;;;23.90;61.80;;;;;;5043118;28;87936;-44
2022/07/01 07:06:48;;;;;;;;;;;24.00;62.50;;;;;;5043452;28;88080;-45
2022/07/01 07:09:13;;;;;;;;;;;24.00;61.80;;;;;;5043406;28;87147;-44
2022/07/01 07:11:39;;;;;;;;;;;24.00;61.90;;;;;;5043113;28;87555;-44
2022/07/01 07:14:04;;;;;;;;;;;24.00;61.90;;;;;;5043327;28;88373;-44
2022/07/01 07:16:30;;;;;;;;;;;24.00;61.90;;;;;;5043293;28;87170;-45
2022/07/01 07:18:55;;;;;;;;;;;24.00;61.90;;;;;;5043328;28;87086;-43
2022/07/01 07:21:21;;;;;;;;;;;24.00;61.90;;;;;;5043462;28;87458;-43
2022/07/01 07:23:46;;;;;;;;;;;24.00;62.00;;;;;;5046192;28;87279;-41
2022/07/01 07:26:12;;;;;;;;;;;24.00;62.00;;;;;;5041534;28;89155;-42
2022/07/01 07:28:37;;;;;;;;;;;24.00;61.90;;;;;;5042495;28;89006;-44
2022/07/01 07:31:03;;;;;;;;;;;24.00;61.90;;;;;;5043159;27;89025;-43
2022/07/01 07:33:29;;;;;;;;;;;24.00;61.90;;;;;;5042479;28;89470;-42
2022/07/01 07:35:54;;;;;;;;;;;24.00;61.90;;;;;;5043261;28;87173;-43
2022/07/01 07:38:20;;;;;;;;;;;24.00;62.00;;;;;;5042875;28;87437;-42
2022/07/01 07:40:46;;;;;;;;;;;24.00;62.10;;;;;;5042679;28;88034;-44
2022/07/01 07:43:11;;;;;;;;;;;24.00;62.10;;;;;;5043243;28;87001;-43
2022/07/01 07:45:37;;;;;;;;;;;24.00;62.10;;;;;;5045676;28;86368;-43
2022/07/01 07:48:03;;;;;;;;;;;24.00;62.00;;;;;;5043141;28;87213;-43
2022/07/01 07:50:29;;;;;;;;;;;24.00;62.20;;;;;;5042569;27;88889;-43
2022/07/01 07:52:55;;;;;;;;;;;24.00;62.10;;;;;;5041737;28;88876;-42
2022/07/01 07:55:20;;;;;;;;;;;24.00;62.10;;;;;;5043064;28;87177;-44
2022/07/01 07:57:46;;;;;;;;;;;24.00;62.10;;;;;;5043000;27;87409;-43
2022/07/01 08:00:12;;;;;;;;;;;24.10;62.20;;;;;;5042538;28;88341;-42
2022/07/01 08:02:37;;;;;;;;;;;24.00;62.10;;;;;;5042765;28;87111;-45
2022/07/01 08:05:03;;;;;;;;;;;24.10;62.10;;;;;;5042672;27;87388;-43
2022/07/01 08:07:29;;;;;;;;;;;24.10;62.10;;;;;;5045246;28;87279;-43
2022/07/01 08:09:55;;;;;;;;;;;24.10;62.00;;;;;;5042312;27;87394;-43
2022/07/01 08:12:21;;;;;;;;;;;24.10;62.10;;;;;;5041983;28;89657;-41
2022/07/01 08:14:47;;;;;;;;;;;24.10;62.10;;;;;;5042446;28;87139;-42
2022/07/01 08:17:12;;;;;;;;;;;24.10;62.10;;;;;;5042001;28;88021;-44
2022/07/01 08:19:38;;;;;;;;;;;24.10;62.00;;;;;;5042349;28;88029;-43
2022/07/01 08:22:04;;;;;;;;;;;24.10;62.20;;;;;;5042602;28;87136;-43
2022/07/01 08:24:29;;;;;;;;;;;24.10;62.10;;;;;;5042475;28;87464;-43
2022/07/01 08:26:55;;;;;;;;;;;24.10;62.10;;;;;;5042089;28;88019;-44
2022/07/01 08:29:20;;;;;;;;;;;24.20;62.20;;;;;;5045342;28;86936;-43
2022/07/01 08:31:46;;;;;;;;;;;24.20;62.20;;;;;;5042104;28;88110;-43
2022/07/01 08:34:11;;;;;;;;;;;24.20;62.20;;;;;;5043080;28;86497;-42
2022/07/01 08:36:37;;;;;;;;;;;24.20;62.00;;;;;;5042696;28;87404;-42
2022/07/01 08:39:03;;;;;;;;;;;24.20;62.00;;;;;;5041582;28;88049;-44
2022/07/01 08:41:29;;;;;;;;;;;24.20;62.00;;;;;;5041611;28;88034;-43
2022/07/01 08:43:54;;;;;;;;;;;24.20;62.10;;;;;;5041929;27;88301;-43
2022/07/01 08:46:21;;;;;;;;;;;24.20;62.20;;;;;;5041957;28;88598;-42
2022/07/01 08:48:46;;;;;;;;;;;24.20;62.10;;;;;;5045110;28;87023;-43
2022/07/01 08:51:12;;;;;;;;;;;24.20;62.10;;;;;;5041941;28;88060;-42
2022/07/01 08:53:38;;;;;;;;;;;24.20;62.00;;;;;;5041950;28;87153;-42
2022/07/01 08:58:48;;;;;;;;;;;24.30;62.20;;;;;;5042842;28;86766;-44
2022/07/01 09:01:17;;;;;;;;;;;24.30;62.30;;;;;;5042111;28;86890;-43
2022/07/01 09:03:44;;;;;;;;;;;24.30;62.20;;;;;;5042366;28;86935;-41
2022/07/01 09:06:13;;;;;;;;;;;24.30;62.30;;;;;;5040625;28;90419;-43
2022/07/01 09:08:38;;;;;;;;;;;24.30;62.30;;;;;;5041743;28;86945;-43
2022/07/01 09:11:17;;;;;;;;;;;24.30;62.20;;;;;;5044383;27;87399;-43
2022/07/01 09:13:43;;;;;;;;;;;24.30;62.20;;;;;;5041889;28;87368;-43
2022/07/01 09:16:13;;;;;;;;;;;24.30;62.20;;;;;;5041640;27;88816;-42
2022/07/01 09:18:39;;;;;;;;;;;24.40;62.30;;;;;;5041497;28;88203;-42
2022/07/01 09:21:07;;;;;;;;;;;24.30;62.10;;;;;;5041840;27;88079;-43
2022/07/01 09:23:33;;;;;;;;;;;24.40;62.20;;;;;;5044746;27;88659;-43
2022/07/01 09:25:58;;;;;;;;;;;24.40;62.20;;;;;;5044758;28;89386;-43
2022/07/01 09:28:28;;;;;;;;;;;24.40;62.20;;;;;;5045283;28;87109;-43
2022/07/01 09:30:56;;;;;;;;;;;24.40;62.40;;;;;;5044441;28;87850;-42
2022/07/01 09:33:24;;;;;;;;;;;24.50;62.30;;;;;;5047265;28;88520;-42
2022/07/01 09:35:50;;;;;;;;;;;24.50;62.40;;;;;;5044968;27;87360;-41
2022/07/01 09:38:17;;;;;;;;;;;24.50;62.70;;;;;;5044570;27;89331;-42
2022/07/01 09:40:46;;;;;;;;;;;24.50;62.30;;;;;;5045067;28;86965;-43
2022/07/01 09:43:18;;;;;;;;;;;24.60;62.50;;;;;;5044922;28;88025;-42
2022/07/01 09:45:50;;;;;;;;;;;24.60;62.30;;;;;;5042666;28;89525;-42
2022/07/01 09:48:16;;;;;;;;;;;24.60;62.40;;;;;;5045507;28;86375;-42
2022/07/01 09:50:41;;;;;;;;;;;24.60;62.30;;;;;;5044831;27;87991;-41
2022/07/01 09:53:07;;;;;;;;;;;24.60;62.40;;;;;;5044720;28;87868;-43
2022/07/01 09:55:34;;;;;;;;;;;24.60;62.40;;;;;;5047215;28;88175;-43
2022/07/01 09:57:59;;;;;;;;;;;24.60;62.40;;;;;;5044452;28;87997;-42
2022/07/01 10:00:26;;;;;;;;;;;24.60;62.30;;;;;;5044665;28;87108;-42
2022/07/01 10:02:52;;;;;;;;;;;24.70;62.50;;;;;;5044773;28;87431;-42
2022/07/01 10:05:20;;;;;;;;;;;24.70;62.30;;;;;;5044250;28;88019;-42
2022/07/01 10:07:58;;;;;;;;;;;24.70;62.30;;;;;;5044663;28;87084;-45
2022/07/01 10:10:31;;;;;;;;;;;24.70;62.30;;;;;;5044264;28;87443;-42
2022/07/01 10:12:59;;;;;;;;;;;24.80;62.40;;;;;;5044702;28;87370;-42
2022/07/01 10:15:25;;;;;;;;;;;24.80;62.30;;;;;;5044040;28;87143;-42
2022/07/01 10:17:52;;;;;;;;;;;24.80;62.40;;;;;;5046985;27;87375;-43
2022/07/01 10:20:25;;;;;;;;;;;24.80;62.30;;;;;;5043675;28;88103;-43
2022/07/01 10:22:59;;;;;;;;;;;24.80;62.40;;;;;;5044489;27;88319;-42
2022/07/01 10:25:35;;;;;;;;;;;24.80;62.20;;;;;;5044030;28;88021;-42
2022/07/01 10:28:21;;;;;;;;;;;24.90;62.30;;;;;;5044249;28;87087;-42
2022/07/01 10:30:50;;;;;;;;;;;24.90;62.20;;;;;;5044023;27;89216;-43
2022/07/01 10:33:33;;;;;;;;;;;24.90;62.30;;;;;;5043537;27;87327;-42
2022/07/01 10:36:05;;;;;;;;;;;25.00;62.30;;;;;;5044137;28;87133;-43
2022/07/01 10:38:31;;;;;;;;;;;25.00;62.30;;;;;;5046764;28;88908;-41
2022/07/01 10:41:09;;;;;;;;;;;25.00;62.20;;;;;;5043982;28;87190;-42
2022/07/01 10:43:41;;;;;;;;;;;25.00;62.20;;;;;;5042678;28;90378;-43
2022/07/01 10:46:07;;;;;;;;;;;25.00;62.20;;;;;;5042371;28;90694;-43
2022/07/01 10:48:33;;;;;;;;;;;25.10;62.30;;;;;;5043820;28;86953;-42
2022/07/01 10:50:58;;;;;;;;;;;25.10;62.30;;;;;;5043923;27;86895;-43
2022/07/01 10:53:24;;;;;;;;;;;25.10;62.10;;;;;;5043656;28;88076;-44
2022/07/01 10:55:51;;;;;;;;;;;25.10;62.10;;;;;;5043598;28;87129;-42
2022/07/01 10:58:18;;;;;;;;;;;25.10;62.20;;;;;;5043823;28;86948;-42
2022/07/01 11:00:46;;;;;;;;;;;25.20;62.20;;;;;;5045784;28;89612;-42
2022/07/01 11:03:15;;;;;;;;;;;25.20;62.20;;;;;;5043968;27;86895;-42
2022/07/01 11:05:41;;;;;;;;;;;25.20;62.20;;;;;;5043008;28;89301;-42
2022/07/01 11:08:08;;;;;;;;;;;25.20;62.10;;;;;;5043297;28;87404;-42
2022/07/01 11:10:33;;;;;;;;;;;25.20;62.00;;;;;;5042776;28;88060;-42
2022/07/01 11:13:00;;;;;;;;;;;25.20;61.90;;;;;;5043204;28;87259;-42
2022/07/01 11:15:26;;;;;;;;;;;25.20;61.90;;;;;;5043641;28;87068;-42
2022/07/01 11:17:52;;;;;;;;;;;25.30;61.90;;;;;;5043675;27;88098;-42
2022/07/01 11:20:17;;;;;;;;;;;25.30;61.90;;;;;;5043302;28;88338;-43
2022/07/01 11:22:43;;;;;;;;;;;25.30;61.90;;;;;;5046172;28;87018;-43
2022/07/01 11:25:09;;;;;;;;;;;25.30;61.90;;;;;;5042936;28;88107;-44
2022/07/01 11:27:35;;;;;;;;;;;25.40;61.80;;;;;;5043922;28;86375;-42
2022/07/01 11:30:04;;;;;;;;;;;25.40;61.80;;;;;;5042965;27;86962;-43
2022/07/01 11:32:37;;;;;;;;;;;25.40;61.70;;;;;;5042408;28;88068;-43
2022/07/01 11:39:21;;;;;;;;;;;25.40;61.70;;;;;;5042265;28;88426;-42
2022/07/01 11:40:33;;;;;;;;;;;25.50;61.90;;;;;;5042933;28;86975;-42
2022/07/01 11:42:59;;;;;;;;;;;25.50;61.60;;;;;;5042992;28;87148;-42
2022/07/01 11:45:25;;;;;;;;;;;25.50;61.40;;;;;;5044254;28;87961;-44
2022/07/01 11:47:51;;;;;;;;;;;25.50;61.30;;;;;;5042924;28;87050;-42
2022/07/01 11:50:17;;;;;;;;;;;25.50;61.20;;;;;;5043051;27;87508;-43
2022/07/01 11:52:42;;;;;;;;;;;25.50;61.20;;;;;;5043305;28;87261;-42
2022/07/01 11:55:08;;;;;;;;;;;25.60;61.20;;;;;;5042996;28;86973;-42
2022/07/01 11:57:34;;;;;;;;;;;25.60;61.10;;;;;;5042813;27;87381;-42
2022/07/01 12:00:07;;;;;;;;;;;25.60;61.10;;;;;;5041917;28;89049;-43
2022/07/01 12:02:33;;;;;;;;;;;25.60;61.20;;;;;;5043086;28;86976;-42
2022/07/01 12:04:59;;;;;;;;;;;25.70;61.10;;;;;;5042557;28;87396;-43
2022/07/01 12:07:25;;;;;;;;;;;25.60;61.00;;;;;;5045703;28;88078;-43
2022/07/01 12:09:51;;;;;;;;;;;25.70;61.00;;;;;;5042370;28;88798;-42
2022/07/01 12:12:22;;;;;;;;;;;25.70;60.90;;;;;;5042051;28;87978;-43
2022/07/01 12:14:53;;;;;;;;;;;25.70;60.80;;;;;;5042530;28;87112;-42
2022/07/01 12:17:19;;;;;;;;;;;25.70;60.80;;;;;;5043232;28;88010;-42
2022/07/01 12:19:48;;;;;;;;;;;25.70;60.70;;;;;;5041994;28;88700;-42
2022/07/01 12:22:20;;;;;;;;;;;25.70;60.70;;;;;;5042544;28;87041;-43
2022/07/01 12:24:46;;;;;;;;;;;25.70;60.60;;;;;;5041906;27;88094;-44
2022/07/01 12:27:12;;;;;;;;;;;25.80;60.60;;;;;;5042156;28;87952;-43
2022/07/01 12:29:43;;;;;;;;;;;25.80;60.40;;;;;;5045226;28;87258;-42
2022/07/01 12:32:11;;;;;;;;;;;25.80;60.80;;;;;;5042319;28;88062;-44
2022/07/01 12:34:42;;;;;;;;;;;25.90;60.30;;;;;;5042364;28;87096;-42
2022/07/01 12:37:13;;;;;;;;;;;25.90;60.20;;;;;;5042282;27;88950;-42
2022/07/01 12:39:52;;;;;;;;;;;25.90;59.90;;;;;;5041738;28;89336;-42
2022/07/01 12:42:20;;;;;;;;;;;26.00;60.00;;;;;;5042755;28;86330;-42
2022/07/01 12:44:46;;;;;;;;;;;26.00;60.00;;;;;;5042144;28;86963;-43
2022/07/01 12:47:23;;;;;;;;;;;26.00;59.80;;;;;;5041597;28;89505;-42
2022/07/01 12:49:49;;;;;;;;;;;26.00;59.70;;;;;;5044308;28;87981;-42
2022/07/01 12:52:24;;;;;;;;;;;26.00;59.50;;;;;;5041830;28;88310;-42
2022/07/01 12:54:49;;;;;;;;;;;26.10;59.40;;;;;;5042092;28;87053;-42
2022/07/01 12:57:15;;;;;;;;;;;26.10;59.40;;;;;;5044291;27;87414;-42
2022/07/01 12:59:41;;;;;;;;;;;26.10;59.30;;;;;;5045205;28;87206;-42
2022/07/01 13:02:06;;;;;;;;;;;26.10;59.10;;;;;;5045504;28;87169;-42
2022/07/01 13:04:32;;;;;;;;;;;26.10;58.90;;;;;;5045545;28;87488;-43
2022/07/01 13:06:57;;;;;;;;;;;26.20;58.90;;;;;;5045455;28;88790;-42
2022/07/01 13:09:23;;;;;;;;;;;26.20;58.90;;;;;;5045345;28;87146;-42
2022/07/01 13:11:49;;;;;;;;;;;26.20;58.80;;;;;;5047846;27;88856;-42
2022/07/01 13:14:14;;;;;;;;;;;26.30;58.70;;;;;;5044883;28;88021;-42
2022/07/01 13:16:40;;;;;;;;;;;26.30;58.70;;;;;;5045569;27;88296;-43
2022/07/01 13:19:05;;;;;;;;;;;26.30;58.70;;;;;;5044994;28;87900;-41
2022/07/01 13:21:31;;;;;;;;;;;26.30;58.40;;;;;;5045406;28;86936;-43
2022/07/01 13:23:56;;;;;;;;;;;26.40;58.40;;;;;;5045235;27;88099;-42
2022/07/01 13:26:22;;;;;;;;;;;26.40;58.30;;;;;;5045082;28;88056;-42
2022/07/01 13:28:47;;;;;;;;;;;26.40;58.20;;;;;;5045255;28;87222;-42
2022/07/01 13:31:13;;;;;;;;;;;26.50;58.20;;;;;;5045695;28;87603;-43
2022/07/01 13:33:39;;;;;;;;;;;26.40;57.90;;;;;;5047415;28;88206;-42
2022/07/01 13:36:04;;;;;;;;;;;26.50;58.00;;;;;;5045200;27;87446;-42
2022/07/01 13:38:30;;;;;;;;;;;26.50;57.90;;;;;;5043872;28;89920;-42
2022/07/01 13:40:55;;;;;;;;;;;26.50;57.40;;;;;;5045240;28;87136;-41
2022/07/01 13:43:21;;;;;;;;;;;26.60;57.30;;;;;;5044906;28;87523;-42
2022/07/01 13:45:46;;;;;;;;;;;26.60;57.10;;;;;;5044523;28;88016;-42
2022/07/01 13:48:12;;;;;;;;;;;26.60;57.10;;;;;;5044805;28;87106;-42
2022/07/01 13:50:38;;;;;;;;;;;26.60;57.10;;;;;;5044846;27;86939;-42
2022/07/01 13:53:03;;;;;;;;;;;26.60;57.50;;;;;;5044614;28;88124;-42
2022/07/01 13:55:29;;;;;;;;;;;26.60;57.40;;;;;;5048454;28;86292;-43
2022/07/01 13:57:54;;;;;;;;;;;26.60;57.40;;;;;;5044661;28;88138;-42
2022/07/01 14:00:20;;;;;;;;;;;26.60;57.20;;;;;;5044566;28;86931;-42
2022/07/01 14:02:46;;;;;;;;;;;26.70;57.10;;;;;;5044091;27;88002;-43
2022/07/01 14:05:11;;;;;;;;;;;26.70;57.10;;;;;;5043908;28;87224;-42
2022/07/01 14:07:37;;;;;;;;;;;26.80;57.00;;;;;;5043718;28;87139;-42
2022/07/01 14:10:03;;;;;;;;;;;26.80;56.60;;;;;;5044369;27;87832;-44
2022/07/01 14:12:28;;;;;;;;;;;26.80;57.00;;;;;;5044209;28;87914;-43
2022/07/01 14:14:57;;;;;;;;;;;26.80;56.80;;;;;;5044514;28;86961;-42
2022/07/01 14:17:23;;;;;;;;;;;26.80;56.70;;;;;;5046845;28;87544;-43
2022/07/01 14:19:48;;;;;;;;;;;26.80;57.20;;;;;;5044763;28;86474;-42
2022/07/01 14:22:14;;;;;;;;;;;26.90;57.00;;;;;;5044457;28;86996;-43
2022/07/01 14:24:39;;;;;;;;;;;26.90;57.20;;;;;;5043600;28;89702;-42